Time;durP1;ratioP1;P1;durP2;ratioP2;P2;SDS_P1;SDS_P2;PMS_P1;PMS_P2;Temp;Humidity;BMP_temperature;BMP_pressure;BME280_temperature;BME280_humidity;BME280_pressure;Samples;Min_cycle;Max_cycle;Signal;HPM_P1;HPM_P2
2022/05/31 00:01:35;;;;;;;;;;;13.80;68.50;;;;;;5064682;28;19983;-73
2022/05/31 00:04:01;;;;;;;;;;;13.80;68.70;;;;;;5058790;28;19916;-73
2022/05/31 00:06:26;;;;;;;;;;;13.80;68.80;;;;;;5046886;28;19912;-73
2022/05/31 00:08:53;;;;;;;;;;;13.70;68.70;;;;;;5051944;28;20558;-73
2022/05/31 00:11:18;;;;;;;;;;;13.80;68.70;;;;;;5065159;28;19995;-73
2022/05/31 00:13:45;;;;;;;;;;;13.70;68.90;;;;;;5064657;28;19919;-73
2022/05/31 00:16:10;;;;;;;;;;;13.70;69.00;;;;;;5060931;28;20510;-74
2022/05/31 00:18:36;;;;;;;;;;;13.70;68.90;;;;;;5045005;28;19923;-73
2022/05/31 00:21:02;;;;;;;;;;;13.70;68.90;;;;;;5058101;28;20421;-73
2022/05/31 00:23:28;;;;;;;;;;;13.60;69.10;;;;;;5064598;28;20046;-73
2022/05/31 00:25:53;;;;;;;;;;;13.60;69.10;;;;;;5060410;28;19924;-73
2022/05/31 00:28:19;;;;;;;;;;;13.60;69.10;;;;;;5064779;28;19928;-73
2022/05/31 00:30:45;;;;;;;;;;;13.60;69.20;;;;;;5061952;28;20668;-73
2022/05/31 00:33:11;;;;;;;;;;;13.60;69.40;;;;;;5060708;28;19913;-74
2022/05/31 00:35:39;;;;;;;;;;;13.60;69.40;;;;;;5049535;28;20035;-73
2022/05/31 00:38:05;;;;;;;;;;;13.60;69.40;;;;;;5059249;28;20112;-73
2022/05/31 00:40:34;;;;;;;;;;;13.50;69.50;;;;;;5046822;28;20225;-73
2022/05/31 00:43:07;;;;;;;;;;;13.50;69.60;;;;;;5064720;28;19912;-73
2022/05/31 00:45:35;;;;;;;;;;;13.50;69.50;;;;;;5061817;28;19982;-74
2022/05/31 00:48:02;;;;;;;;;;;13.50;69.70;;;;;;5052382;28;20296;-73
2022/05/31 00:50:40;;;;;;;;;;;13.50;69.60;;;;;;5047095;28;20015;-73
2022/05/31 00:53:09;;;;;;;;;;;13.50;69.70;;;;;;5057360;28;19913;-73
2022/05/31 00:55:37;;;;;;;;;;;13.50;69.80;;;;;;5046763;28;19912;-73
2022/05/31 00:58:07;;;;;;;;;;;13.40;69.90;;;;;;5028507;28;20461;-73
2022/05/31 01:00:34;;;;;;;;;;;13.40;69.90;;;;;;5028205;28;19936;-73
2022/05/31 01:03:00;;;;;;;;;;;13.40;70.00;;;;;;5063962;28;19940;-73
2022/05/31 01:05:26;;;;;;;;;;;13.40;69.90;;;;;;5067924;28;20016;-73
2022/05/31 01:07:52;;;;;;;;;;;13.30;69.90;;;;;;5061125;28;20472;-73
2022/05/31 01:10:18;;;;;;;;;;;13.30;70.10;;;;;;5047906;28;19999;-74
2022/05/31 01:12:44;;;;;;;;;;;13.30;70.10;;;;;;5054985;28;19959;-73
2022/05/31 01:15:11;;;;;;;;;;;13.30;70.00;;;;;;5048129;28;19956;-73
2022/05/31 01:17:36;;;;;;;;;;;13.30;70.20;;;;;;5056001;28;19971;-73
2022/05/31 01:20:03;;;;;;;;;;;13.30;70.20;;;;;;5067668;28;19912;-74
2022/05/31 01:22:49;;;;;;;;;;;13.30;70.40;;;;;;5065023;28;19928;-73
2022/05/31 01:25:33;;;;;;;;;;;13.20;70.40;;;;;;5067597;28;19916;-73
2022/05/31 01:27:59;;;;;;;;;;;13.20;70.70;;;;;;5065246;28;19920;-73
2022/05/31 01:30:25;;;;;;;;;;;13.20;71.50;;;;;;5067888;28;19922;-74
2022/05/31 01:33:00;;;;;;;;;;;13.20;71.70;;;;;;5063558;28;20593;-73
2022/05/31 01:35:28;;;;;;;;;;;13.20;71.80;;;;;;5029602;28;20267;-73
2022/05/31 01:38:00;;;;;;;;;;;13.10;71.90;;;;;;5047912;28;19916;-73
2022/05/31 01:40:44;;;;;;;;;;;13.10;72.10;;;;;;5047555;28;20064;-73
2022/05/31 01:43:10;;;;;;;;;;;13.10;71.90;;;;;;5049309;28;19943;-74
2022/05/31 01:45:41;;;;;;;;;;;13.10;72.10;;;;;;5067037;28;20288;-73
2022/05/31 01:48:07;;;;;;;;;;;13.10;72.10;;;;;;5065072;28;20623;-74
2022/05/31 01:50:33;;;;;;;;;;;13.10;71.70;;;;;;5067579;28;19918;-74
2022/05/31 01:52:59;;;;;;;;;;;13.10;72.10;;;;;;5053947;28;19913;-73
2022/05/31 01:55:25;;;;;;;;;;;13.00;72.40;;;;;;5066934;28;19938;-73
2022/05/31 01:57:54;;;;;;;;;;;13.00;72.40;;;;;;5066669;28;20261;-73
2022/05/31 02:00:20;;;;;;;;;;;13.00;72.40;;;;;;5051274;28;20051;-73
2022/05/31 02:02:48;;;;;;;;;;;13.00;72.60;;;;;;5047173;28;20363;-73
2022/05/31 02:05:14;;;;;;;;;;;13.00;72.70;;;;;;5061821;28;20560;-73
2022/05/31 02:07:39;;;;;;;;;;;13.00;72.60;;;;;;5065150;28;19940;-74
2022/05/31 02:10:05;;;;;;;;;;;12.90;72.60;;;;;;5045915;28;20283;-73
2022/05/31 02:12:31;;;;;;;;;;;12.90;72.60;;;;;;5049146;28;20369;-73
2022/05/31 02:14:57;;;;;;;;;;;13.00;72.80;;;;;;5055628;28;20297;-73
2022/05/31 02:17:22;;;;;;;;;;;12.90;72.40;;;;;;5066717;28;19943;-73
2022/05/31 02:19:48;;;;;;;;;;;12.90;72.00;;;;;;5063949;28;19994;-73
2022/05/31 02:22:15;;;;;;;;;;;12.90;72.40;;;;;;5065482;28;19912;-73
2022/05/31 02:24:40;;;;;;;;;;;12.90;72.20;;;;;;5064219;28;19916;-73
2022/05/31 02:27:07;;;;;;;;;;;12.90;72.30;;;;;;5066451;28;19916;-74
2022/05/31 02:29:34;;;;;;;;;;;12.90;72.10;;;;;;5064101;28;19994;-74
2022/05/31 02:32:00;;;;;;;;;;;12.80;72.10;;;;;;5066973;28;20448;-73
2022/05/31 02:34:28;;;;;;;;;;;12.90;72.20;;;;;;5050634;28;19921;-74
2022/05/31 02:36:54;;;;;;;;;;;12.80;72.00;;;;;;5066069;28;19913;-74
2022/05/31 02:39:20;;;;;;;;;;;12.80;72.10;;;;;;5050663;28;19959;-74
2022/05/31 02:41:46;;;;;;;;;;;12.80;72.20;;;;;;5062470;28;19916;-74
2022/05/31 02:44:12;;;;;;;;;;;12.80;72.30;;;;;;5066087;28;19909;-73
2022/05/31 02:46:37;;;;;;;;;;;12.80;72.50;;;;;;5063255;28;20654;-73
2022/05/31 02:49:04;;;;;;;;;;;12.80;72.50;;;;;;5066044;28;19912;-73
2022/05/31 02:51:32;;;;;;;;;;;12.80;72.30;;;;;;5063649;28;19916;-73
2022/05/31 02:53:58;;;;;;;;;;;12.80;72.30;;;;;;5049706;28;20656;-73
2022/05/31 02:56:23;;;;;;;;;;;12.80;72.40;;;;;;5054105;28;19924;-73
2022/05/31 02:58:49;;;;;;;;;;;12.80;72.40;;;;;;5066015;28;20440;-73
2022/05/31 03:01:19;;;;;;;;;;;12.80;72.40;;;;;;5045320;28;20027;-73
2022/05/31 03:03:44;;;;;;;;;;;12.80;72.50;;;;;;5065442;28;19912;-73
2022/05/31 03:06:10;;;;;;;;;;;12.80;72.60;;;;;;5056132;28;19923;-73
2022/05/31 03:08:35;;;;;;;;;;;12.80;72.60;;;;;;5055012;28;19916;-73
2022/05/31 03:11:02;;;;;;;;;;;12.80;72.60;;;;;;5044938;28;20477;-73
2022/05/31 03:13:29;;;;;;;;;;;12.80;72.80;;;;;;5064832;28;19917;-73
2022/05/31 03:15:59;;;;;;;;;;;12.80;72.80;;;;;;5063633;28;19912;-73
2022/05/31 03:18:26;;;;;;;;;;;12.70;72.80;;;;;;5064410;28;19978;-73
2022/05/31 03:20:56;;;;;;;;;;;12.80;72.80;;;;;;5065072;28;20693;-73
2022/05/31 03:23:25;;;;;;;;;;;12.70;72.80;;;;;;5063268;28;19912;-73
2022/05/31 03:25:51;;;;;;;;;;;12.70;72.90;;;;;;5065368;28;19971;-73
2022/05/31 03:28:17;;;;;;;;;;;12.70;73.00;;;;;;5044729;28;20010;-73
2022/05/31 03:30:43;;;;;;;;;;;12.70;72.90;;;;;;5065442;28;19908;-73
2022/05/31 03:33:09;;;;;;;;;;;12.70;73.00;;;;;;5059409;28;19925;-73
2022/05/31 03:35:35;;;;;;;;;;;12.70;73.20;;;;;;5044853;28;19955;-73
2022/05/31 03:38:01;;;;;;;;;;;12.70;73.10;;;;;;5042455;28;19940;-73
2022/05/31 03:43:11;;;;;;;;;;;12.70;73.50;;;;;;5052655;28;19982;-73
2022/05/31 03:45:38;;;;;;;;;;;12.70;73.20;;;;;;5064127;28;20582;-74
2022/05/31 03:48:04;;;;;;;;;;;12.70;73.20;;;;;;5062242;28;19920;-73
2022/05/31 03:50:29;;;;;;;;;;;12.70;73.40;;;;;;5065075;28;19978;-73
2022/05/31 03:52:55;;;;;;;;;;;12.70;73.20;;;;;;5059820;28;20577;-73
2022/05/31 03:55:21;;;;;;;;;;;12.70;73.30;;;;;;5065224;28;19912;-73
2022/05/31 03:57:47;;;;;;;;;;;12.70;73.40;;;;;;5062797;28;19916;-74
2022/05/31 04:00:13;;;;;;;;;;;12.70;73.40;;;;;;5057745;28;19965;-73
2022/05/31 04:02:38;;;;;;;;;;;12.70;73.40;;;;;;5045490;28;19912;-73
2022/05/31 04:05:04;;;;;;;;;;;12.70;73.50;;;;;;5062195;28;20417;-73
2022/05/31 04:07:29;;;;;;;;;;;12.70;73.40;;;;;;5045359;28;19919;-73
2022/05/31 04:09:55;;;;;;;;;;;12.70;73.50;;;;;;5045577;28;19913;-73
2022/05/31 04:12:20;;;;;;;;;;;12.70;73.60;;;;;;5046048;28;19986;-73
2022/05/31 04:14:46;;;;;;;;;;;12.70;73.60;;;;;;5062488;28;19924;-73
2022/05/31 04:17:11;;;;;;;;;;;12.70;73.70;;;;;;5064594;28;20645;-73
2022/05/31 04:19:36;;;;;;;;;;;12.70;73.70;;;;;;5061850;28;19917;-73
2022/05/31 04:22:02;;;;;;;;;;;12.70;73.80;;;;;;5064155;28;19912;-73
2022/05/31 04:24:28;;;;;;;;;;;12.70;73.70;;;;;;5066043;28;19928;-73
2022/05/31 04:26:53;;;;;;;;;;;12.60;73.70;;;;;;5068577;28;19974;-74
2022/05/31 04:29:19;;;;;;;;;;;12.70;73.90;;;;;;5066568;28;19921;-73
2022/05/31 04:31:44;;;;;;;;;;;12.70;73.90;;;;;;5069108;28;19908;-74
2022/05/31 04:34:10;;;;;;;;;;;12.70;73.90;;;;;;5056334;28;19912;-73
2022/05/31 04:36:35;;;;;;;;;;;12.70;73.90;;;;;;5050292;28;19938;-73
2022/05/31 04:39:01;;;;;;;;;;;12.70;73.90;;;;;;5055250;28;19913;-73
2022/05/31 04:41:28;;;;;;;;;;;12.70;74.00;;;;;;5065442;28;20378;-73
2022/05/31 04:43:54;;;;;;;;;;;12.70;73.90;;;;;;5068547;28;19962;-73
2022/05/31 04:46:21;;;;;;;;;;;12.70;73.90;;;;;;5065688;28;19942;-73
2022/05/31 04:48:46;;;;;;;;;;;12.70;74.00;;;;;;5068337;28;19917;-73
2022/05/31 04:51:12;;;;;;;;;;;12.70;74.20;;;;;;5065976;28;20016;-74
2022/05/31 04:53:38;;;;;;;;;;;12.70;74.00;;;;;;5054219;28;19970;-73
2022/05/31 04:56:05;;;;;;;;;;;12.70;74.10;;;;;;5056949;28;20029;-73
2022/05/31 04:58:31;;;;;;;;;;;12.70;74.10;;;;;;5057901;28;19939;-74
2022/05/31 05:00:57;;;;;;;;;;;12.70;74.10;;;;;;5047559;28;19917;-74
2022/05/31 05:03:22;;;;;;;;;;;12.70;74.20;;;;;;5068367;28;19943;-74
2022/05/31 05:05:48;;;;;;;;;;;12.70;74.10;;;;;;5064781;28;19920;-74
2022/05/31 05:08:13;;;;;;;;;;;12.70;74.10;;;;;;5061155;28;19936;-73
2022/05/31 05:10:45;;;;;;;;;;;12.80;74.20;;;;;;5047786;28;19921;-74
2022/05/31 05:13:11;;;;;;;;;;;12.70;74.20;;;;;;5067782;28;20710;-74
2022/05/31 05:15:40;;;;;;;;;;;12.80;74.20;;;;;;5065257;28;19974;-74
2022/05/31 05:18:06;;;;;;;;;;;12.80;74.30;;;;;;5028007;28;19920;-74
2022/05/31 05:20:34;;;;;;;;;;;12.80;74.20;;;;;;5048799;28;19912;-74
2022/05/31 05:23:00;;;;;;;;;;;12.80;74.30;;;;;;5053953;28;19936;-73
2022/05/31 05:25:25;;;;;;;;;;;12.80;74.40;;;;;;5058272;28;20666;-73
2022/05/31 05:27:51;;;;;;;;;;;12.80;74.40;;;;;;5063931;28;19924;-74
2022/05/31 05:33:00;;;;;;;;;;;12.80;74.40;;;;;;5062363;28;19918;-73
2022/05/31 05:35:26;;;;;;;;;;;12.80;74.50;;;;;;5047841;28;19913;-74
2022/05/31 05:37:51;;;;;;;;;;;12.80;74.50;;;;;;5054522;28;19967;-74
2022/05/31 05:40:17;;;;;;;;;;;12.80;74.70;;;;;;5047581;28;19913;-73
2022/05/31 05:42:42;;;;;;;;;;;12.80;74.70;;;;;;5039275;28;19917;-73
2022/05/31 05:45:10;;;;;;;;;;;12.80;74.90;;;;;;5027601;28;20430;-73
2022/05/31 05:47:35;;;;;;;;;;;12.80;74.70;;;;;;5039267;28;20003;-74
2022/05/31 05:50:01;;;;;;;;;;;12.90;75.00;;;;;;5067422;28;20041;-73
2022/05/31 05:52:27;;;;;;;;;;;12.90;74.90;;;;;;5064472;28;20337;-73
2022/05/31 05:54:52;;;;;;;;;;;12.90;74.90;;;;;;5055838;28;19912;-73
2022/05/31 05:57:18;;;;;;;;;;;12.90;75.00;;;;;;5045682;28;19991;-73
2022/05/31 05:59:43;;;;;;;;;;;12.90;74.90;;;;;;5048768;28;19924;-73
2022/05/31 06:02:12;;;;;;;;;;;12.90;74.90;;;;;;5047401;28;19913;-73
2022/05/31 06:04:37;;;;;;;;;;;12.90;74.90;;;;;;5063739;28;19917;-73
2022/05/31 06:07:10;;;;;;;;;;;12.90;74.70;;;;;;5067096;28;19923;-73
2022/05/31 06:09:37;;;;;;;;;;;12.90;74.70;;;;;;5049054;28;20007;-73
2022/05/31 06:12:09;;;;;;;;;;;13.00;74.70;;;;;;5047131;28;19924;-74
2022/05/31 06:14:55;;;;;;;;;;;13.00;74.80;;;;;;5063909;28;20064;-73
2022/05/31 06:17:22;;;;;;;;;;;13.00;74.80;;;;;;5066321;28;19913;-73
2022/05/31 06:19:49;;;;;;;;;;;13.10;74.80;;;;;;5063969;28;20420;-73
2022/05/31 06:22:14;;;;;;;;;;;13.10;74.70;;;;;;5066753;28;20030;-74
2022/05/31 06:24:40;;;;;;;;;;;13.10;74.80;;;;;;5063566;28;20477;-73
2022/05/31 06:27:06;;;;;;;;;;;13.10;74.80;;;;;;5066208;28;20506;-73
2022/05/31 06:29:31;;;;;;;;;;;13.10;74.70;;;;;;5063697;28;19917;-73
2022/05/31 06:31:57;;;;;;;;;;;13.20;74.70;;;;;;5066443;28;19912;-73
2022/05/31 06:34:23;;;;;;;;;;;13.20;74.60;;;;;;5057110;28;20377;-73
2022/05/31 06:36:49;;;;;;;;;;;13.20;74.40;;;;;;5066502;28;19913;-73
2022/05/31 06:39:15;;;;;;;;;;;13.30;74.40;;;;;;5052989;28;19924;-73
2022/05/31 06:41:40;;;;;;;;;;;13.30;74.30;;;;;;5066283;28;19913;-73
2022/05/31 06:44:05;;;;;;;;;;;13.30;74.30;;;;;;5063823;28;19924;-73
2022/05/31 06:46:31;;;;;;;;;;;13.40;74.40;;;;;;5065834;28;20611;-73
2022/05/31 06:48:57;;;;;;;;;;;13.40;74.30;;;;;;5066195;28;20429;-73
2022/05/31 06:56:53;;;;;;;;;;;13.50;74.30;;;;;;5025999;28;19962;-73
2022/05/31 06:59:18;;;;;;;;;;;13.50;74.30;;;;;;5026367;28;19966;-73
2022/05/31 07:01:47;;;;;;;;;;;13.50;74.30;;;;;;5062251;28;19912;-73
2022/05/31 07:04:13;;;;;;;;;;;13.50;74.40;;;;;;5065951;28;19913;-73
2022/05/31 07:06:38;;;;;;;;;;;13.50;74.50;;;;;;5062614;28;19916;-73
2022/05/31 07:09:04;;;;;;;;;;;13.50;74.70;;;;;;5052547;28;20011;-73
2022/05/31 07:11:29;;;;;;;;;;;13.50;74.70;;;;;;5025788;28;19924;-73
2022/05/31 07:13:55;;;;;;;;;;;13.50;74.80;;;;;;5059853;28;20304;-73
2022/05/31 07:16:20;;;;;;;;;;;13.50;75.50;;;;;;5063051;28;20482;-73
2022/05/31 07:18:46;;;;;;;;;;;13.50;75.20;;;;;;5065735;28;20338;-73
2022/05/31 07:21:12;;;;;;;;;;;13.50;75.10;;;;;;5061143;28;19913;-73
2022/05/31 07:23:38;;;;;;;;;;;13.50;75.10;;;;;;5065501;28;20023;-74
2022/05/31 07:26:04;;;;;;;;;;;13.50;75.20;;;;;;5062709;28;19927;-73
2022/05/31 07:28:30;;;;;;;;;;;13.50;75.20;;;;;;5065381;28;20273;-73
2022/05/31 07:30:55;;;;;;;;;;;13.50;75.20;;;;;;5044259;28;19966;-73
2022/05/31 07:33:21;;;;;;;;;;;13.50;75.40;;;;;;5060190;28;19913;-74
2022/05/31 07:35:49;;;;;;;;;;;13.50;75.40;;;;;;5045663;28;19912;-73
2022/05/31 07:38:15;;;;;;;;;;;13.50;75.60;;;;;;5055528;28;19917;-74
2022/05/31 07:40:40;;;;;;;;;;;13.50;75.80;;;;;;5045654;28;19909;-73
2022/05/31 07:43:06;;;;;;;;;;;13.60;75.80;;;;;;5047381;28;19928;-73
2022/05/31 07:45:31;;;;;;;;;;;13.50;75.80;;;;;;5025495;28;19917;-72
2022/05/31 07:47:57;;;;;;;;;;;13.50;75.80;;;;;;5051737;28;19969;-73
2022/05/31 07:50:23;;;;;;;;;;;13.50;75.80;;;;;;5061814;28;20482;-73
2022/05/31 07:52:48;;;;;;;;;;;13.50;75.70;;;;;;5045602;28;20007;-73
2022/05/31 07:55:14;;;;;;;;;;;13.50;75.80;;;;;;5044048;28;20031;-73
2022/05/31 08:00:24;;;;;;;;;;;13.50;75.90;;;;;;5064490;28;19943;-73
2022/05/31 08:02:49;;;;;;;;;;;13.50;75.90;;;;;;5062435;28;20610;-73
2022/05/31 08:05:15;;;;;;;;;;;13.50;76.00;;;;;;5065082;28;19924;-73
2022/05/31 08:07:41;;;;;;;;;;;13.50;76.00;;;;;;5060443;28;19927;-73
2022/05/31 08:10:07;;;;;;;;;;;13.50;76.20;;;;;;5044939;28;19913;-73
2022/05/31 08:12:32;;;;;;;;;;;13.50;76.20;;;;;;5045566;28;19916;-73
2022/05/31 08:14:58;;;;;;;;;;;13.50;76.20;;;;;;5065087;28;19913;-73
2022/05/31 08:17:23;;;;;;;;;;;13.50;76.20;;;;;;5064981;28;20308;-73
2022/05/31 08:19:49;;;;;;;;;;;13.50;76.50;;;;;;5062066;28;20427;-73
2022/05/31 08:22:14;;;;;;;;;;;13.50;76.20;;;;;;5065212;28;19919;-73
2022/05/31 08:24:40;;;;;;;;;;;13.50;76.20;;;;;;5062536;28;20768;-73
2022/05/31 08:27:05;;;;;;;;;;;13.60;76.30;;;;;;5065176;28;19916;-73
2022/05/31 08:29:31;;;;;;;;;;;13.60;76.30;;;;;;5044585;28;20627;-73
2022/05/31 08:31:58;;;;;;;;;;;13.60;76.20;;;;;;5064908;28;20273;-73
2022/05/31 08:34:25;;;;;;;;;;;13.70;76.30;;;;;;5058906;28;19957;-73
2022/05/31 08:36:50;;;;;;;;;;;13.70;76.20;;;;;;5064830;28;19939;-73
2022/05/31 08:39:16;;;;;;;;;;;13.80;76.00;;;;;;5055140;28;20408;-73
2022/05/31 08:41:46;;;;;;;;;;;13.80;76.00;;;;;;5064929;28;19912;-73
2022/05/31 08:44:31;;;;;;;;;;;13.90;75.90;;;;;;5052042;28;19916;-73
2022/05/31 08:47:00;;;;;;;;;;;14.10;75.80;;;;;;5064749;28;20014;-73
2022/05/31 08:52:25;;;;;;;;;;;14.20;75.40;;;;;;5061890;28;19919;-73
2022/05/31 08:57:37;;;;;;;;;;;14.20;75.20;;;;;;5047028;28;19966;-74
2022/05/31 09:00:07;;;;;;;;;;;14.20;75.20;;;;;;5049604;28;20405;-73
2022/05/31 09:02:54;;;;;;;;;;;14.20;75.20;;;;;;5064571;28;20646;-73
2022/05/31 09:05:36;;;;;;;;;;;14.20;75.20;;;;;;5061943;28;20003;-73
2022/05/31 09:08:09;;;;;;;;;;;14.30;75.30;;;;;;5060267;28;20647;-73
2022/05/31 09:10:40;;;;;;;;;;;14.30;75.20;;;;;;5054113;28;19924;-73
2022/05/31 09:13:15;;;;;;;;;;;14.30;75.20;;;;;;5050108;28;20269;-73
2022/05/31 09:15:54;;;;;;;;;;;14.30;75.20;;;;;;5065559;28;19912;-73
2022/05/31 09:18:32;;;;;;;;;;;14.40;75.20;;;;;;5050104;28;19917;-73
2022/05/31 09:21:04;;;;;;;;;;;14.40;75.00;;;;;;5064828;28;19927;-73
2022/05/31 09:23:35;;;;;;;;;;;14.50;75.00;;;;;;5068063;28;19913;-73
2022/05/31 09:26:33;;;;;;;;;;;14.50;74.80;;;;;;5065087;28;19927;-73
2022/05/31 09:28:58;;;;;;;;;;;14.60;74.80;;;;;;5011815;28;19997;-73
2022/05/31 09:31:42;;;;;;;;;;;14.70;74.80;;;;;;5065406;28;20436;-73
2022/05/31 09:34:08;;;;;;;;;;;14.70;74.80;;;;;;5056040;28;19970;-73
2022/05/31 09:36:41;;;;;;;;;;;14.80;74.80;;;;;;5053338;28;19920;-73
2022/05/31 09:39:24;;;;;;;;;;;14.80;74.80;;;;;;5053816;28;19998;-73
2022/05/31 09:42:05;;;;;;;;;;;14.80;74.90;;;;;;5051209;28;19913;-73
2022/05/31 09:44:38;;;;;;;;;;;14.90;74.80;;;;;;5067500;28;19916;-73
2022/05/31 09:47:04;;;;;;;;;;;15.00;74.60;;;;;;5064725;28;19981;-73
2022/05/31 09:49:44;;;;;;;;;;;15.00;74.50;;;;;;5047565;28;19916;-73
2022/05/31 09:52:30;;;;;;;;;;;15.10;74.40;;;;;;5051933;28;20364;-73
2022/05/31 09:58:12;;;;;;;;;;;15.30;73.90;;;;;;5050181;28;19967;-73
2022/05/31 10:00:56;;;;;;;;;;;15.40;73.70;;;;;;5067138;28;19960;-73
2022/05/31 10:03:31;;;;;;;;;;;15.40;73.70;;;;;;5064696;28;20600;-73
2022/05/31 10:06:04;;;;;;;;;;;15.50;73.70;;;;;;5066551;28;19931;-73
2022/05/31 10:08:31;;;;;;;;;;;15.50;73.60;;;;;;5055431;28;19944;-73
2022/05/31 10:10:57;;;;;;;;;;;15.50;73.50;;;;;;5046892;28;19917;-73
2022/05/31 10:13:33;;;;;;;;;;;15.60;73.50;;;;;;5056603;28;20489;-74
2022/05/31 10:16:07;;;;;;;;;;;15.60;73.40;;;;;;5048483;28;19916;-73
2022/05/31 10:18:33;;;;;;;;;;;15.70;73.40;;;;;;5064032;28;19970;-74
2022/05/31 10:21:03;;;;;;;;;;;15.70;73.20;;;;;;5065093;28;19920;-73
2022/05/31 10:23:34;;;;;;;;;;;15.70;73.30;;;;;;5064168;28;19982;-73
2022/05/31 10:26:00;;;;;;;;;;;15.70;73.40;;;;;;5048111;28;19921;-73
2022/05/31 10:28:31;;;;;;;;;;;15.70;73.50;;;;;;5064417;28;19928;-73
2022/05/31 10:31:03;;;;;;;;;;;15.70;73.70;;;;;;5066344;28;19924;-73
2022/05/31 10:33:29;;;;;;;;;;;15.70;73.70;;;;;;5063599;28;19917;-74
2022/05/31 10:36:06;;;;;;;;;;;15.70;73.70;;;;;;5055773;28;19999;-73
2022/05/31 10:38:32;;;;;;;;;;;15.70;73.70;;;;;;5042858;28;19962;-73
2022/05/31 10:40:58;;;;;;;;;;;15.80;73.50;;;;;;5046338;28;19943;-73
2022/05/31 10:43:30;;;;;;;;;;;15.80;73.40;;;;;;5046233;28;20469;-73
2022/05/31 10:45:55;;;;;;;;;;;15.90;73.30;;;;;;5066164;28;19999;-73
2022/05/31 10:48:21;;;;;;;;;;;16.00;73.20;;;;;;5064876;28;19915;-73
2022/05/31 10:50:54;;;;;;;;;;;16.00;72.90;;;;;;5065472;28;19916;-73
2022/05/31 10:53:35;;;;;;;;;;;16.10;72.70;;;;;;5037239;28;20281;-74
2022/05/31 10:56:23;;;;;;;;;;;16.20;72.20;;;;;;5060327;28;20608;-73
2022/05/31 10:58:58;;;;;;;;;;;16.40;71.80;;;;;;5044330;28;19916;-73
2022/05/31 11:01:42;;;;;;;;;;;16.50;71.60;;;;;;5026083;28;20731;-72
2022/05/31 11:04:22;;;;;;;;;;;16.60;71.50;;;;;;5027091;28;19909;-73
2022/05/31 11:07:06;;;;;;;;;;;16.70;71.10;;;;;;5065659;28;20310;-73
2022/05/31 11:12:22;;;;;;;;;;;16.80;70.90;;;;;;5065968;28;19920;-73
2022/05/31 11:15:13;;;;;;;;;;;17.00;70.70;;;;;;5063217;28;20513;-73
2022/05/31 11:17:39;;;;;;;;;;;17.00;70.90;;;;;;5065703;28;20689;-73
2022/05/31 11:20:04;;;;;;;;;;;17.20;70.40;;;;;;5062721;28;19916;-73
2022/05/31 11:22:41;;;;;;;;;;;17.30;70.20;;;;;;5065921;28;19943;-73
2022/05/31 11:25:19;;;;;;;;;;;17.40;69.90;;;;;;5062751;28;19931;-73
2022/05/31 11:28:01;;;;;;;;;;;17.50;69.80;;;;;;5065466;28;20036;-73
2022/05/31 11:30:31;;;;;;;;;;;17.60;69.30;;;;;;5062488;28;19917;-73
2022/05/31 11:33:00;;;;;;;;;;;17.70;69.20;;;;;;5049282;28;19912;-73
2022/05/31 11:35:25;;;;;;;;;;;17.80;69.30;;;;;;5044863;28;19920;-73
2022/05/31 11:37:51;;;;;;;;;;;17.80;69.30;;;;;;5061603;28;19917;-73
2022/05/31 11:40:41;;;;;;;;;;;17.90;69.10;;;;;;5044919;28;19955;-73
2022/05/31 11:43:09;;;;;;;;;;;18.10;68.80;;;;;;5038436;28;19967;-73
2022/05/31 11:45:42;;;;;;;;;;;18.30;68.30;;;;;;5042061;28;19952;-73
2022/05/31 11:48:22;;;;;;;;;;;18.50;68.00;;;;;;5038291;28;19920;-73
2022/05/31 11:51:06;;;;;;;;;;;18.50;67.70;;;;;;5042140;28;19969;-73
2022/05/31 11:53:32;;;;;;;;;;;18.60;67.80;;;;;;5037259;28;19913;-73
2022/05/31 11:56:02;;;;;;;;;;;18.70;67.50;;;;;;5040153;28;19966;-74
2022/05/31 11:58:30;;;;;;;;;;;18.70;67.40;;;;;;5064013;28;19947;-73
2022/05/31 12:01:01;;;;;;;;;;;18.80;67.50;;;;;;5065023;28;19913;-73
2022/05/31 12:03:39;;;;;;;;;;;18.90;67.20;;;;;;5062614;28;19947;-73
2022/05/31 12:06:08;;;;;;;;;;;19.00;67.30;;;;;;5054555;28;19917;-73
2022/05/31 12:08:37;;;;;;;;;;;19.10;67.10;;;;;;5051404;28;19924;-73
2022/05/31 12:11:06;;;;;;;;;;;19.20;67.10;;;;;;5044924;28;19920;-73
2022/05/31 12:13:34;;;;;;;;;;;19.30;66.70;;;;;;5058980;28;19995;-73
2022/05/31 12:15:59;;;;;;;;;;;19.40;66.90;;;;;;5064766;28;19965;-72
2022/05/31 12:18:31;;;;;;;;;;;19.50;66.50;;;;;;5061656;28;19916;-73
2022/05/31 12:21:03;;;;;;;;;;;19.60;66.10;;;;;;5064461;28;19913;-73
2022/05/31 12:23:32;;;;;;;;;;;19.60;66.20;;;;;;5061943;28;19916;-73
2022/05/31 12:25:59;;;;;;;;;;;19.70;66.00;;;;;;5046646;28;19921;-74
2022/05/31 12:28:31;;;;;;;;;;;19.80;65.80;;;;;;5034887;28;19924;-73
2022/05/31 12:31:02;;;;;;;;;;;19.90;65.60;;;;;;5042959;28;19945;-72
2022/05/31 12:33:38;;;;;;;;;;;20.00;65.80;;;;;;5045738;28;20767;-72
2022/05/31 12:36:04;;;;;;;;;;;20.10;65.70;;;;;;5042363;28;20392;-72
2022/05/31 12:38:49;;;;;;;;;;;20.10;65.70;;;;;;5046782;28;19925;-73
2022/05/31 12:41:30;;;;;;;;;;;20.20;65.80;;;;;;5036690;28;19919;-73
2022/05/31 12:43:58;;;;;;;;;;;20.30;65.60;;;;;;5054582;28;19916;-73
2022/05/31 12:46:32;;;;;;;;;;;20.40;65.60;;;;;;5068559;28;19923;-73
2022/05/31 12:48:59;;;;;;;;;;;20.50;65.40;;;;;;5048693;28;19919;-73
2022/05/31 12:51:25;;;;;;;;;;;20.50;65.10;;;;;;5042321;28;19917;-72
2022/05/31 12:53:55;;;;;;;;;;;20.50;64.80;;;;;;5052137;28;19957;-73
2022/05/31 12:56:29;;;;;;;;;;;20.60;64.80;;;;;;5060898;28;19917;-73
2022/05/31 12:58:55;;;;;;;;;;;20.60;65.00;;;;;;5049906;28;20014;-73
2022/05/31 13:01:24;;;;;;;;;;;20.50;65.20;;;;;;5067900;28;19916;-73
2022/05/31 13:03:50;;;;;;;;;;;20.50;65.30;;;;;;5065079;28;19952;-73
2022/05/31 13:06:16;;;;;;;;;;;20.50;65.60;;;;;;5067623;28;19959;-73
2022/05/31 13:08:59;;;;;;;;;;;20.60;66.10;;;;;;5057086;28;19959;-73
2022/05/31 13:20:04;;;;;;;;;;;20.90;64.60;;;;;;5063299;28;19923;-73
2022/05/31 13:22:37;;;;;;;;;;;21.00;64.40;;;;;;5048178;28;19995;-73
2022/05/31 13:25:09;;;;;;;;;;;21.00;64.50;;;;;;5056558;28;19916;-73
2022/05/31 13:27:35;;;;;;;;;;;21.10;64.40;;;;;;5066180;28;20526;-73
2022/05/31 13:30:04;;;;;;;;;;;21.20;64.10;;;;;;5064175;28;19923;-72
2022/05/31 13:32:38;;;;;;;;;;;21.30;64.00;;;;;;5065900;28;19912;-72
2022/05/31 13:35:09;;;;;;;;;;;21.30;63.70;;;;;;5046274;28;19919;-72
2022/05/31 13:37:46;;;;;;;;;;;21.40;63.70;;;;;;5064180;28;20348;-72
2022/05/31 13:40:11;;;;;;;;;;;21.50;63.30;;;;;;5044133;28;19913;-72
2022/05/31 13:42:38;;;;;;;;;;;21.60;62.70;;;;;;5066872;28;19916;-72
2022/05/31 13:45:06;;;;;;;;;;;21.80;62.50;;;;;;5066910;28;19925;-72
2022/05/31 13:47:33;;;;;;;;;;;21.80;62.50;;;;;;5063378;28;19917;-72
2022/05/31 13:50:04;;;;;;;;;;;21.80;62.30;;;;;;5066443;28;19927;-72
2022/05/31 13:52:31;;;;;;;;;;;21.80;62.10;;;;;;5041227;28;20011;-73
2022/05/31 13:55:09;;;;;;;;;;;22.00;61.60;;;;;;5026358;28;19956;-72
2022/05/31 13:57:34;;;;;;;;;;;22.10;61.20;;;;;;5057338;28;19935;-73
2022/05/31 14:00:00;;;;;;;;;;;22.00;61.20;;;;;;5058852;28;19913;-73
2022/05/31 14:02:48;;;;;;;;;;;22.00;60.40;;;;;;5058041;28;19916;-73
2022/05/31 14:05:21;;;;;;;;;;;21.90;60.50;;;;;;5066314;28;20042;-73
2022/05/31 14:07:48;;;;;;;;;;;21.80;60.70;;;;;;5060607;28;19943;-73
2022/05/31 14:10:18;;;;;;;;;;;21.70;61.00;;;;;;5028163;28;20028;-73
2022/05/31 14:12:44;;;;;;;;;;;21.70;61.20;;;;;;5056680;28;20670;-73
2022/05/31 14:15:30;;;;;;;;;;;21.60;60.40;;;;;;5066439;28;19912;-73
2022/05/31 14:18:09;;;;;;;;;;;21.50;61.40;;;;;;5061870;28;20611;-73
2022/05/31 14:20:39;;;;;;;;;;;21.40;62.00;;;;;;5059622;28;19920;-73
2022/05/31 14:23:24;;;;;;;;;;;21.30;62.10;;;;;;5056570;28;19924;-73
2022/05/31 14:25:51;;;;;;;;;;;21.20;62.90;;;;;;5066508;28;20051;-73
2022/05/31 14:28:20;;;;;;;;;;;21.00;63.40;;;;;;5063881;28;19924;-73
2022/05/31 14:30:54;;;;;;;;;;;20.90;63.40;;;;;;5066800;28;20375;-73
2022/05/31 14:33:20;;;;;;;;;;;20.90;62.40;;;;;;5058609;28;19916;-73
2022/05/31 14:35:49;;;;;;;;;;;20.80;62.50;;;;;;5046322;28;19913;-74
2022/05/31 14:38:25;;;;;;;;;;;20.80;61.90;;;;;;5046564;28;19917;-73
2022/05/31 14:40:59;;;;;;;;;;;20.80;62.40;;;;;;5025014;28;19919;-73
2022/05/31 14:43:27;;;;;;;;;;;20.70;61.40;;;;;;5041671;28;19955;-73
2022/05/31 14:45:53;;;;;;;;;;;20.60;62.20;;;;;;5065645;28;19923;-73
2022/05/31 14:48:28;;;;;;;;;;;20.50;60.70;;;;;;5063654;28;19960;-74
2022/05/31 14:50:54;;;;;;;;;;;20.50;61.20;;;;;;5066187;28;20242;-73
2022/05/31 14:53:19;;;;;;;;;;;20.50;61.90;;;;;;5055369;28;19916;-73
2022/05/31 14:55:46;;;;;;;;;;;20.60;63.30;;;;;;5065654;28;20583;-73
2022/05/31 15:01:44;;;;;;;;;;;20.60;59.70;;;;;;5066281;28;19923;-73
2022/05/31 15:04:16;;;;;;;;;;;20.50;61.20;;;;;;4962233;28;19993;-73